sensor_id;sensor_type;location;lat;lon;timestamp;pressure;altitude;pressure_sealevel;temperature;humidity
14818;BME280;7500;57.698;11.986;2023-02-02T00:01:13;100622.25;;;4.54;100.00
14818;BME280;7500;57.698;11.986;2023-02-02T00:03:40;100624.91;;;4.52;100.00
14818;BME280;7500;57.698;11.986;2023-02-02T00:06:07;100632.06;;;4.46;100.00
14818;BME280;7500;57.698;11.986;2023-02-02T00:08:34;100631.16;;;4.47;100.00
14818;BME280;7500;57.698;11.986;2023-02-02T00:11:03;100637.59;;;4.36;100.00
14818;BME280;7500;57.698;11.986;2023-02-02T00:13:31;100648.84;;;4.39;100.00
14818;BME280;7500;57.698;11.986;2023-02-02T00:15:58;100652.97;;;4.46;100.00
14818;BME280;7500;57.698;11.986;2023-02-02T00:18:25;100659.16;;;4.42;100.00
14818;BME280;7500;57.698;11.986;2023-02-02T00:20:52;100658.41;;;4.39;100.00
14818;BME280;7500;57.698;11.986;2023-02-02T00:23:19;100666.25;;;4.39;100.00
14818;BME280;7500;57.698;11.986;2023-02-02T00:25:49;100666.41;;;4.33;100.00
14818;BME280;7500;57.698;11.986;2023-02-02T00:28:16;100676.94;;;4.31;100.00
14818;BME280;7500;57.698;11.986;2023-02-02T00:30:44;100677.66;;;4.36;100.00
14818;BME280;7500;57.698;11.986;2023-02-02T00:33:11;100674.09;;;4.39;100.00
14818;BME280;7500;57.698;11.986;2023-02-02T00:35:40;100683.94;;;4.29;100.00
14818;BME280;7500;57.698;11.986;2023-02-02T00:38:08;100687.38;;;4.31;100.00
14818;BME280;7500;57.698;11.986;2023-02-02T00:40:35;100693.38;;;4.35;100.00
14818;BME280;7500;57.698;11.986;2023-02-02T00:43:01;100694.91;;;4.42;100.00
14818;BME280;7500;57.698;11.986;2023-02-02T00:45:29;100706.31;;;4.39;100.00
14818;BME280;7500;57.698;11.986;2023-02-02T00:47:56;100706.50;;;4.33;100.00
14818;BME280;7500;57.698;11.986;2023-02-02T00:50:23;100705.31;;;4.43;100.00
14818;BME280;7500;57.698;11.986;2023-02-02T00:52:50;100716.84;;;4.36;100.00
14818;BME280;7500;57.698;11.986;2023-02-02T00:55:17;100712.53;;;4.35;100.00
14818;BME280;7500;57.698;11.986;2023-02-02T00:57:44;100720.81;;;4.50;100.00
14818;BME280;7500;57.698;11.986;2023-02-02T01:00:13;100731.50;;;4.42;100.00
14818;BME280;7500;57.698;11.986;2023-02-02T01:02:40;100732.34;;;4.42;100.00
14818;BME280;7500;57.698;11.986;2023-02-02T01:05:10;100735.03;;;4.41;100.00
14818;BME280;7500;57.698;11.986;2023-02-02T01:07:37;100740.13;;;4.45;100.00
14818;BME280;7500;57.698;11.986;2023-02-02T01:10:05;100750.47;;;4.49;100.00
14818;BME280;7500;57.698;11.986;2023-02-02T01:12:33;100759.88;;;4.55;100.00
14818;BME280;7500;57.698;11.986;2023-02-02T01:15:00;100767.00;;;4.50;100.00
14818;BME280;7500;57.698;11.986;2023-02-02T01:17:27;100769.59;;;4.51;100.00
14818;BME280;7500;57.698;11.986;2023-02-02T01:19:54;100779.22;;;4.49;100.00
14818;BME280;7500;57.698;11.986;2023-02-02T01:22:22;100781.13;;;4.43;100.00
14818;BME280;7500;57.698;11.986;2023-02-02T01:24:49;100787.97;;;4.47;100.00
14818;BME280;7500;57.698;11.986;2023-02-02T01:27:16;100786.69;;;4.63;100.00
14818;BME280;7500;57.698;11.986;2023-02-02T01:29:43;100785.78;;;4.64;100.00
14818;BME280;7500;57.698;11.986;2023-02-02T01:32:11;100798.78;;;4.67;100.00
14818;BME280;7500;57.698;11.986;2023-02-02T01:34:38;100808.72;;;4.86;100.00
14818;BME280;7500;57.698;11.986;2023-02-02T01:37:06;100812.06;;;4.91;100.00
14818;BME280;7500;57.698;11.986;2023-02-02T01:39:34;100826.72;;;4.97;100.00
14818;BME280;7500;57.698;11.986;2023-02-02T01:42:02;100817.97;;;4.98;100.00
14818;BME280;7500;57.698;11.986;2023-02-02T01:45:04;100827.13;;;4.82;100.00
14818;BME280;7500;57.698;11.986;2023-02-02T01:47:35;100836.22;;;4.69;100.00
14818;BME280;7500;57.698;11.986;2023-02-02T01:50:03;100835.41;;;4.65;100.00
14818;BME280;7500;57.698;11.986;2023-02-02T01:52:32;100837.28;;;4.60;100.00
14818;BME280;7500;57.698;11.986;2023-02-02T01:55:03;100836.66;;;4.51;100.00
14818;BME280;7500;57.698;11.986;2023-02-02T01:57:36;100853.50;;;4.41;100.00
14818;BME280;7500;57.698;11.986;2023-02-02T02:00:07;100847.53;;;4.36;100.00
14818;BME280;7500;57.698;11.986;2023-02-02T02:02:34;100861.81;;;4.22;100.00
14818;BME280;7500;57.698;11.986;2023-02-02T02:05:04;100868.09;;;4.15;100.00
14818;BME280;7500;57.698;11.986;2023-02-02T02:07:31;100872.38;;;4.17;100.00
14818;BME280;7500;57.698;11.986;2023-02-02T02:09:58;100879.16;;;4.24;100.00
14818;BME280;7500;57.698;11.986;2023-02-02T02:12:26;100889.88;;;4.14;100.00
14818;BME280;7500;57.698;11.986;2023-02-02T02:14:53;100899.56;;;4.09;100.00
14818;BME280;7500;57.698;11.986;2023-02-02T02:17:49;100917.03;;;4.07;100.00
14818;BME280;7500;57.698;11.986;2023-02-02T02:20:53;100920.72;;;3.98;100.00
14818;BME280;7500;57.698;11.986;2023-02-02T02:27:17;100947.00;;;3.91;100.00
14818;BME280;7500;57.698;11.986;2023-02-02T02:30:21;100954.75;;;3.94;100.00
14818;BME280;7500;57.698;11.986;2023-02-02T02:33:02;100958.09;;;4.00;100.00
14818;BME280;7500;57.698;11.986;2023-02-02T02:35:32;100965.19;;;3.95;100.00
14818;BME280;7500;57.698;11.986;2023-02-02T02:38:08;100961.19;;;3.78;100.00
14818;BME280;7500;57.698;11.986;2023-02-02T02:40:39;100972.53;;;3.75;100.00
14818;BME280;7500;57.698;11.986;2023-02-02T02:43:12;100979.75;;;3.64;100.00
14818;BME280;7500;57.698;11.986;2023-02-02T02:45:41;100963.25;;;3.62;100.00
14818;BME280;7500;57.698;11.986;2023-02-02T02:48:10;100980.66;;;3.62;100.00
14818;BME280;7500;57.698;11.986;2023-02-02T02:50:38;100981.88;;;3.44;100.00
14818;BME280;7500;57.698;11.986;2023-02-02T02:53:07;100964.69;;;3.33;100.00
14818;BME280;7500;57.698;11.986;2023-02-02T02:55:41;100984.53;;;3.41;100.00
14818;BME280;7500;57.698;11.986;2023-02-02T02:58:15;100993.34;;;3.37;100.00
14818;BME280;7500;57.698;11.986;2023-02-02T03:00:58;100999.75;;;3.19;100.00
14818;BME280;7500;57.698;11.986;2023-02-02T03:03:34;101010.09;;;3.25;100.00
14818;BME280;7500;57.698;11.986;2023-02-02T03:06:11;101010.13;;;3.22;100.00
14818;BME280;7500;57.698;11.986;2023-02-02T03:08:44;101010.94;;;3.25;100.00
14818;BME280;7500;57.698;11.986;2023-02-02T03:11:12;101018.06;;;3.16;100.00
14818;BME280;7500;57.698;11.986;2023-02-02T03:13:41;101013.91;;;3.06;100.00
14818;BME280;7500;57.698;11.986;2023-02-02T03:16:09;101025.22;;;3.05;100.00
14818;BME280;7500;57.698;11.986;2023-02-02T03:18:37;101025.31;;;2.97;100.00
14818;BME280;7500;57.698;11.986;2023-02-02T03:21:05;101030.69;;;2.90;100.00
14818;BME280;7500;57.698;11.986;2023-02-02T03:23:32;101038.44;;;2.93;100.00
14818;BME280;7500;57.698;11.986;2023-02-02T03:25:59;101053.22;;;2.92;100.00
14818;BME280;7500;57.698;11.986;2023-02-02T03:28:26;101053.16;;;2.95;100.00
14818;BME280;7500;57.698;11.986;2023-02-02T03:30:54;101060.09;;;2.96;100.00
14818;BME280;7500;57.698;11.986;2023-02-02T03:33:23;101061.03;;;2.94;100.00
14818;BME280;7500;57.698;11.986;2023-02-02T03:35:51;101068.84;;;2.92;100.00
14818;BME280;7500;57.698;11.986;2023-02-02T03:38:18;101085.38;;;2.91;100.00
14818;BME280;7500;57.698;11.986;2023-02-02T03:40:45;101090.59;;;2.91;100.00
14818;BME280;7500;57.698;11.986;2023-02-02T03:43:12;101102.63;;;3.01;100.00
14818;BME280;7500;57.698;11.986;2023-02-02T03:45:39;101094.81;;;3.01;100.00
14818;BME280;7500;57.698;11.986;2023-02-02T03:48:06;101112.22;;;2.99;100.00
14818;BME280;7500;57.698;11.986;2023-02-02T03:50:33;101103.72;;;2.88;100.00
14818;BME280;7500;57.698;11.986;2023-02-02T03:53:01;101114.94;;;2.28;100.00
14818;BME280;7500;57.698;11.986;2023-02-02T03:55:29;101123.00;;;2.74;100.00
14818;BME280;7500;57.698;11.986;2023-02-02T03:57:56;101123.53;;;3.00;100.00
14818;BME280;7500;57.698;11.986;2023-02-02T04:00:23;101123.38;;;3.09;100.00
14818;BME280;7500;57.698;11.986;2023-02-02T04:02:50;101132.06;;;3.08;100.00
14818;BME280;7500;57.698;11.986;2023-02-02T04:05:17;101135.69;;;3.01;100.00
14818;BME280;7500;57.698;11.986;2023-02-02T04:07:43;101134.03;;;2.94;100.00
14818;BME280;7500;57.698;11.986;2023-02-02T04:10:12;101139.25;;;2.92;100.00
14818;BME280;7500;57.698;11.986;2023-02-02T04:12:38;101145.31;;;2.96;100.00
14818;BME280;7500;57.698;11.986;2023-02-02T04:15:06;101148.81;;;2.95;100.00
14818;BME280;7500;57.698;11.986;2023-02-02T04:17:33;101152.31;;;2.92;100.00
14818;BME280;7500;57.698;11.986;2023-02-02T04:20:00;101155.53;;;3.08;100.00
14818;BME280;7500;57.698;11.986;2023-02-02T04:22:27;101156.44;;;3.07;100.00
14818;BME280;7500;57.698;11.986;2023-02-02T04:24:54;101159.16;;;3.01;100.00
14818;BME280;7500;57.698;11.986;2023-02-02T04:27:23;101164.41;;;2.98;100.00
14818;BME280;7500;57.698;11.986;2023-02-02T04:29:49;101180.94;;;2.97;100.00
14818;BME280;7500;57.698;11.986;2023-02-02T04:32:17;101115.53;;;2.51;100.00
14818;BME280;7500;57.698;11.986;2023-02-02T04:34:44;101184.59;;;2.84;100.00
14818;BME280;7500;57.698;11.986;2023-02-02T04:37:11;101178.63;;;2.73;100.00
14818;BME280;7500;57.698;11.986;2023-02-02T04:39:38;101200.47;;;2.66;100.00
14818;BME280;7500;57.698;11.986;2023-02-02T04:42:05;101199.44;;;2.76;100.00
14818;BME280;7500;57.698;11.986;2023-02-02T04:44:33;101181.31;;;2.70;100.00
14818;BME280;7500;57.698;11.986;2023-02-02T04:47:00;101204.47;;;2.91;100.00
14818;BME280;7500;57.698;11.986;2023-02-02T04:49:27;101209.63;;;2.95;100.00
14818;BME280;7500;57.698;11.986;2023-02-02T04:51:55;101210.53;;;2.93;100.00
14818;BME280;7500;57.698;11.986;2023-02-02T04:54:21;101226.00;;;2.35;100.00
14818;BME280;7500;57.698;11.986;2023-02-02T04:56:48;101234.09;;;2.07;100.00
14818;BME280;7500;57.698;11.986;2023-02-02T04:59:15;101235.81;;;2.08;100.00
14818;BME280;7500;57.698;11.986;2023-02-02T05:01:43;101236.72;;;2.06;100.00
14818;BME280;7500;57.698;11.986;2023-02-02T05:04:10;101244.06;;;2.52;100.00
14818;BME280;7500;57.698;11.986;2023-02-02T05:06:37;101256.16;;;2.57;100.00
14818;BME280;7500;57.698;11.986;2023-02-02T05:09:04;101253.50;;;2.62;100.00
14818;BME280;7500;57.698;11.986;2023-02-02T05:11:31;101254.47;;;2.52;100.00
14818;BME280;7500;57.698;11.986;2023-02-02T05:13:58;101263.09;;;2.58;100.00
14818;BME280;7500;57.698;11.986;2023-02-02T05:16:25;101279.09;;;2.22;100.00
14818;BME280;7500;57.698;11.986;2023-02-02T05:18:54;101277.66;;;1.90;100.00
14818;BME280;7500;57.698;11.986;2023-02-02T05:21:22;101267.31;;;1.81;100.00
14818;BME280;7500;57.698;11.986;2023-02-02T05:23:49;101283.84;;;1.79;100.00
14818;BME280;7500;57.698;11.986;2023-02-02T05:26:18;101287.31;;;1.76;100.00
14818;BME280;7500;57.698;11.986;2023-02-02T05:28:46;101288.25;;;1.66;100.00
14818;BME280;7500;57.698;11.986;2023-02-02T05:31:13;101283.06;;;1.62;100.00
14818;BME280;7500;57.698;11.986;2023-02-02T05:33:40;101295.19;;;1.66;100.00
14818;BME280;7500;57.698;11.986;2023-02-02T05:36:09;101216.25;;;1.68;100.00
14818;BME280;7500;57.698;11.986;2023-02-02T05:38:36;101308.13;;;1.78;100.00
14818;BME280;7500;57.698;11.986;2023-02-02T05:41:03;101314.63;;;2.29;100.00
14818;BME280;7500;57.698;11.986;2023-02-02T05:43:31;101310.16;;;2.42;100.00
14818;BME280;7500;57.698;11.986;2023-02-02T05:45:58;101313.59;;;2.47;100.00
14818;BME280;7500;57.698;11.986;2023-02-02T05:48:25;101321.41;;;2.47;100.00
14818;BME280;7500;57.698;11.986;2023-02-02T05:50:58;101330.97;;;2.48;100.00
14818;BME280;7500;57.698;11.986;2023-02-02T05:53:28;101314.63;;;2.34;100.00
14818;BME280;7500;57.698;11.986;2023-02-02T05:55:55;101332.78;;;2.41;100.00
14818;BME280;7500;57.698;11.986;2023-02-02T05:58:22;101338.88;;;2.37;100.00
14818;BME280;7500;57.698;11.986;2023-02-02T06:00:50;101353.56;;;2.46;100.00
14818;BME280;7500;57.698;11.986;2023-02-02T06:03:17;101354.38;;;2.52;100.00
14818;BME280;7500;57.698;11.986;2023-02-02T06:05:44;101363.00;;;2.59;100.00
14818;BME280;7500;57.698;11.986;2023-02-02T06:08:11;101367.31;;;2.63;100.00
14818;BME280;7500;57.698;11.986;2023-02-02T06:10:40;101376.88;;;2.59;100.00
14818;BME280;7500;57.698;11.986;2023-02-02T06:13:07;101379.50;;;2.56;100.00
14818;BME280;7500;57.698;11.986;2023-02-02T06:15:34;101382.16;;;2.55;100.00
14818;BME280;7500;57.698;11.986;2023-02-02T06:18:01;101386.06;;;2.03;100.00
14818;BME280;7500;57.698;11.986;2023-02-02T06:20:30;101402.78;;;1.56;100.00
14818;BME280;7500;57.698;11.986;2023-02-02T06:22:57;101400.22;;;1.51;100.00
14818;BME280;7500;57.698;11.986;2023-02-02T06:25:24;101404.59;;;1.48;100.00
14818;BME280;7500;57.698;11.986;2023-02-02T06:27:55;101397.72;;;1.33;100.00
14818;BME280;7500;57.698;11.986;2023-02-02T06:30:22;101405.53;;;1.26;100.00
14818;BME280;7500;57.698;11.986;2023-02-02T06:32:49;101402.84;;;1.45;100.00
14818;BME280;7500;57.698;11.986;2023-02-02T06:35:16;101401.97;;;1.51;100.00
14818;BME280;7500;57.698;11.986;2023-02-02T06:37:43;101407.97;;;1.63;100.00
14818;BME280;7500;57.698;11.986;2023-02-02T06:40:11;101405.41;;;1.60;100.00
14818;BME280;7500;57.698;11.986;2023-02-02T06:42:39;101410.56;;;1.62;100.00
14818;BME280;7500;57.698;11.986;2023-02-02T06:45:08;101411.53;;;1.38;100.00
14818;BME280;7500;57.698;11.986;2023-02-02T06:47:35;101441.00;;;1.43;100.00
14818;BME280;7500;57.698;11.986;2023-02-02T06:50:02;101439.28;;;1.50;100.00
14818;BME280;7500;57.698;11.986;2023-02-02T06:52:29;101440.09;;;1.55;100.00
14818;BME280;7500;57.698;11.986;2023-02-02T06:54:56;101453.13;;;1.53;100.00
14818;BME280;7500;57.698;11.986;2023-02-02T06:57:23;101462.66;;;1.54;100.00
14818;BME280;7500;57.698;11.986;2023-02-02T06:59:50;101464.38;;;1.58;100.00
14818;BME280;7500;57.698;11.986;2023-02-02T07:02:18;101473.03;;;1.69;100.00
14818;BME280;7500;57.698;11.986;2023-02-02T07:04:47;101462.56;;;1.75;100.00
14818;BME280;7500;57.698;11.986;2023-02-02T07:07:14;101472.06;;;1.82;100.00
14818;BME280;7500;57.698;11.986;2023-02-02T07:09:41;101479.91;;;1.78;100.00
14818;BME280;7500;57.698;11.986;2023-02-02T07:12:08;101492.03;;;1.83;100.00
14818;BME280;7500;57.698;11.986;2023-02-02T07:14:35;101484.22;;;1.83;100.00
14818;BME280;7500;57.698;11.986;2023-02-02T07:17:02;101479.94;;;1.69;100.00
14818;BME280;7500;57.698;11.986;2023-02-02T07:19:30;101493.06;;;1.24;100.00
14818;BME280;7500;57.698;11.986;2023-02-02T07:21:58;101488.78;;;0.99;100.00
14818;BME280;7500;57.698;11.986;2023-02-02T07:24:25;101505.25;;;1.03;100.00
14818;BME280;7500;57.698;11.986;2023-02-02T07:26:53;101500.06;;;1.04;100.00
14818;BME280;7500;57.698;11.986;2023-02-02T07:29:22;101498.31;;;1.05;100.00
14818;BME280;7500;57.698;11.986;2023-02-02T07:31:49;101499.19;;;1.04;100.00
14818;BME280;7500;57.698;11.986;2023-02-02T07:34:16;101513.06;;;1.04;100.00
14818;BME280;7500;57.698;11.986;2023-02-02T07:36:45;101519.97;;;0.99;100.00
14818;BME280;7500;57.698;11.986;2023-02-02T07:39:11;101526.06;;;0.95;100.00
14818;BME280;7500;57.698;11.986;2023-02-02T07:41:38;101522.59;;;0.89;100.00
14818;BME280;7500;57.698;11.986;2023-02-02T07:44:11;101524.31;;;0.81;100.00
14818;BME280;7500;57.698;11.986;2023-02-02T07:46:40;101536.44;;;0.85;100.00
14818;BME280;7500;57.698;11.986;2023-02-02T07:49:09;101538.19;;;0.84;100.00
14818;BME280;7500;57.698;11.986;2023-02-02T07:51:36;101542.53;;;0.90;100.00
14818;BME280;7500;57.698;11.986;2023-02-02T07:54:05;101557.22;;;0.79;100.00
14818;BME280;7500;57.698;11.986;2023-02-02T07:56:32;101532.97;;;0.62;100.00
14818;BME280;7500;57.698;11.986;2023-02-02T07:58:59;101564.16;;;0.74;100.00
14818;BME280;7500;57.698;11.986;2023-02-02T08:01:26;101571.09;;;0.66;100.00
14818;BME280;7500;57.698;11.986;2023-02-02T08:03:55;101565.91;;;0.63;100.00
14818;BME280;7500;57.698;11.986;2023-02-02T08:06:25;101577.16;;;0.59;100.00
14818;BME280;7500;57.698;11.986;2023-02-02T08:08:53;101586.63;;;0.48;100.00
14818;BME280;7500;57.698;11.986;2023-02-02T08:11:24;101593.59;;;0.50;100.00
14818;BME280;7500;57.698;11.986;2023-02-02T08:13:53;101596.16;;;0.53;100.00
14818;BME280;7500;57.698;11.986;2023-02-02T08:16:21;101602.28;;;0.66;100.00
14818;BME280;7500;57.698;11.986;2023-02-02T08:18:48;101618.72;;;0.69;100.00
14818;BME280;7500;57.698;11.986;2023-02-02T08:21:16;101623.03;;;0.69;100.00
14818;BME280;7500;57.698;11.986;2023-02-02T08:23:44;101630.84;;;0.66;100.00
14818;BME280;7500;57.698;11.986;2023-02-02T08:26:12;101627.38;;;0.68;100.00
14818;BME280;7500;57.698;11.986;2023-02-02T08:28:43;101642.94;;;0.62;100.00
14818;BME280;7500;57.698;11.986;2023-02-02T08:31:13;101631.69;;;0.63;100.00
14818;BME280;7500;57.698;11.986;2023-02-02T08:33:40;101625.59;;;0.55;100.00
14818;BME280;7500;57.698;11.986;2023-02-02T08:36:10;101633.38;;;0.52;100.00
14818;BME280;7500;57.698;11.986;2023-02-02T08:38:37;101634.28;;;0.56;100.00
14818;BME280;7500;57.698;11.986;2023-02-02T08:41:05;101636.00;;;0.57;100.00
14818;BME280;7500;57.698;11.986;2023-02-02T08:43:32;101621.25;;;0.51;100.00
14818;BME280;7500;57.698;11.986;2023-02-02T08:46:02;101631.69;;;0.56;100.00
14818;BME280;7500;57.698;11.986;2023-02-02T08:48:29;101623.03;;;0.57;100.00
14818;BME280;7500;57.698;11.986;2023-02-02T08:50:57;101634.31;;;0.71;100.00
14818;BME280;7500;57.698;11.986;2023-02-02T08:53:25;101640.38;;;0.73;100.00
14818;BME280;7500;57.698;11.986;2023-02-02T08:55:56;101639.50;;;0.65;100.00
14818;BME280;7500;57.698;11.986;2023-02-02T08:58:23;101655.97;;;0.68;100.00
14818;BME280;7500;57.698;11.986;2023-02-02T09:00:50;101676.75;;;0.70;100.00
14818;BME280;7500;57.698;11.986;2023-02-02T09:03:19;101684.53;;;0.70;100.00
14818;BME280;7500;57.698;11.986;2023-02-02T09:05:45;101682.81;;;0.69;100.00
14818;BME280;7500;57.698;11.986;2023-02-02T09:08:12;101690.59;;;0.69;100.00
14818;BME280;7500;57.698;11.986;2023-02-02T09:10:39;101688.84;;;0.59;100.00
14818;BME280;7500;57.698;11.986;2023-02-02T09:13:06;101698.41;;;0.63;100.00
14818;BME280;7500;57.698;11.986;2023-02-02T09:15:33;101706.19;;;0.69;100.00
14818;BME280;7500;57.698;11.986;2023-02-02T09:18:00;101710.56;;;0.76;100.00
14818;BME280;7500;57.698;11.986;2023-02-02T09:20:28;101719.22;;;0.75;100.00
14818;BME280;7500;57.698;11.986;2023-02-02T09:22:55;101719.22;;;0.75;100.00
14818;BME280;7500;57.698;11.986;2023-02-02T09:25:23;101726.16;;;0.76;100.00
14818;BME280;7500;57.698;11.986;2023-02-02T09:27:51;101743.47;;;0.80;100.00
14818;BME280;7500;57.698;11.986;2023-02-02T09:30:19;101727.88;;;0.77;100.00
14818;BME280;7500;57.698;11.986;2023-02-02T09:32:47;101740.03;;;0.84;100.00
14818;BME280;7500;57.698;11.986;2023-02-02T09:35:15;101740.03;;;0.84;100.00
14818;BME280;7500;57.698;11.986;2023-02-02T09:37:43;101747.81;;;0.81;100.00
14818;BME280;7500;57.698;11.986;2023-02-02T09:40:14;101754.78;;;0.85;100.00
14818;BME280;7500;57.698;11.986;2023-02-02T09:43:01;101758.25;;;0.87;100.00
14818;BME280;7500;57.698;11.986;2023-02-02T09:45:37;101761.72;;;0.92;100.00
14818;BME280;7500;57.698;11.986;2023-02-02T09:48:18;101763.47;;;0.90;100.00
14818;BME280;7500;57.698;11.986;2023-02-02T09:50:50;101764.31;;;0.93;100.00
14818;BME280;7500;57.698;11.986;2023-02-02T09:53:25;101770.44;;;1.00;100.00
14818;BME280;7500;57.698;11.986;2023-02-02T09:55:58;101773.03;;;1.03;100.00
14818;BME280;7500;57.698;11.986;2023-02-02T09:58:27;101778.22;;;0.98;100.00
14818;BME280;7500;57.698;11.986;2023-02-02T10:01:02;101775.63;;;1.06;100.00
14818;BME280;7500;57.698;11.986;2023-02-02T10:03:34;101780.84;;;1.04;100.00
14818;BME280;7500;57.698;11.986;2023-02-02T10:06:05;101785.22;;;1.14;100.00
14818;BME280;7500;57.698;11.986;2023-02-02T10:08:42;101781.75;;;1.21;100.00
14818;BME280;7500;57.698;11.986;2023-02-02T10:11:28;101780.91;;;1.26;100.00
14818;BME280;7500;57.698;11.986;2023-02-02T10:14:00;101786.13;;;1.37;100.00
14818;BME280;7500;57.698;11.986;2023-02-02T10:16:29;101788.75;;;1.40;100.00
14818;BME280;7500;57.698;11.986;2023-02-02T10:19:00;101791.34;;;1.44;100.00
14818;BME280;7500;57.698;11.986;2023-02-02T10:21:33;101808.69;;;1.48;100.00
14818;BME280;7500;57.698;11.986;2023-02-02T10:24:11;101806.97;;;1.50;100.00
14818;BME280;7500;57.698;11.986;2023-02-02T10:26:45;101807.00;;;1.56;100.00
14818;BME280;7500;57.698;11.986;2023-02-02T10:29:15;101806.13;;;1.60;100.00
14818;BME280;7500;57.698;11.986;2023-02-02T10:31:49;101805.28;;;1.61;100.00
14818;BME280;7500;57.698;11.986;2023-02-02T10:34:24;101813.09;;;1.67;100.00
14818;BME280;7500;57.698;11.986;2023-02-02T10:37:10;101809.63;;;1.70;100.00
14818;BME280;7500;57.698;11.986;2023-02-02T10:39:52;101816.53;;;1.68;100.00
14818;BME280;7500;57.698;11.986;2023-02-02T10:42:30;101826.97;;;1.60;100.00
14818;BME280;7500;57.698;11.986;2023-02-02T10:45:01;101832.16;;;1.71;100.00
14818;BME280;7500;57.698;11.986;2023-02-02T10:47:32;101813.94;;;2.38;100.00
14818;BME280;7500;57.698;11.986;2023-02-02T10:50:13;101830.44;;;2.53;100.00
14818;BME280;7500;57.698;11.986;2023-02-02T10:52:43;101826.06;;;2.58;100.00
14818;BME280;7500;57.698;11.986;2023-02-02T10:55:20;101834.75;;;2.65;100.00
14818;BME280;7500;57.698;11.986;2023-02-02T10:57:55;101832.13;;;2.72;100.00
14818;BME280;7500;57.698;11.986;2023-02-02T11:00:30;101832.97;;;2.82;100.00
14818;BME280;7500;57.698;11.986;2023-02-02T11:03:00;101843.38;;;2.94;100.00
14818;BME280;7500;57.698;11.986;2023-02-02T11:05:29;101846.78;;;3.08;100.00
14818;BME280;7500;57.698;11.986;2023-02-02T11:08:16;101861.56;;;3.12;100.00
14818;BME280;7500;57.698;11.986;2023-02-02T11:10:47;101859.13;;;2.53;100.00
14818;BME280;7500;57.698;11.986;2023-02-02T11:13:27;101827.00;;;2.32;100.00
14818;BME280;7500;57.698;11.986;2023-02-02T11:16:23;101864.34;;;2.28;100.00
14818;BME280;7500;57.698;11.986;2023-02-02T11:18:52;101854.78;;;2.24;100.00
14818;BME280;7500;57.698;11.986;2023-02-02T11:21:21;101849.56;;;2.24;100.00
14818;BME280;7500;57.698;11.986;2023-02-02T11:23:53;101841.75;;;2.24;100.00
14818;BME280;7500;57.698;11.986;2023-02-02T11:26:23;101859.09;;;2.29;100.00
14818;BME280;7500;57.698;11.986;2023-02-02T11:28:51;101851.28;;;2.23;100.00
14818;BME280;7500;57.698;11.986;2023-02-02T11:31:33;101840.88;;;2.10;100.00
14818;BME280;7500;57.698;11.986;2023-02-02T11:34:09;101846.97;;;2.12;100.00
14818;BME280;7500;57.698;11.986;2023-02-02T11:36:57;101851.31;;;2.16;100.00
14818;BME280;7500;57.698;11.986;2023-02-02T11:39:24;101841.75;;;2.12;100.00
14818;BME280;7500;57.698;11.986;2023-02-02T11:41:58;101842.59;;;2.08;100.00
14818;BME280;7500;57.698;11.986;2023-02-02T11:44:27;101845.22;;;2.14;100.00
14818;BME280;7500;57.698;11.986;2023-02-02T11:46:54;101775.78;;;1.77;100.00
14818;BME280;7500;57.698;11.986;2023-02-02T11:49:22;101853.03;;;2.20;100.00
14818;BME280;7500;57.698;11.986;2023-02-02T11:52:00;101841.75;;;2.18;100.00
14818;BME280;7500;57.698;11.986;2023-02-02T11:54:31;101839.16;;;2.27;100.00
14818;BME280;7500;57.698;11.986;2023-02-02T11:57:02;101841.75;;;2.33;100.00
14818;BME280;7500;57.698;11.986;2023-02-02T11:59:32;101843.41;;;2.76;100.00
14818;BME280;7500;57.698;11.986;2023-02-02T12:02:26;101850.31;;;2.95;100.00
14818;BME280;7500;57.698;11.986;2023-02-02T12:04:55;101856.44;;;2.83;100.00
14818;BME280;7500;57.698;11.986;2023-02-02T12:07:25;101863.38;;;2.92;100.00
14818;BME280;7500;57.698;11.986;2023-02-02T12:09:56;101857.34;;;2.69;100.00
14818;BME280;7500;57.698;11.986;2023-02-02T12:12:35;101861.66;;;2.73;100.00
14818;BME280;7500;57.698;11.986;2023-02-02T12:15:15;101864.31;;;2.70;100.00
14818;BME280;7500;57.698;11.986;2023-02-02T12:17:48;101862.53;;;2.75;100.00
14818;BME280;7500;57.698;11.986;2023-02-02T12:20:28;101857.31;;;2.76;100.00
14818;BME280;7500;57.698;11.986;2023-02-02T12:23:15;101845.16;;;2.74;100.00
14818;BME280;7500;57.698;11.986;2023-02-02T12:26:09;101850.34;;;2.86;100.00
14818;BME280;7500;57.698;11.986;2023-02-02T12:31:56;101819.97;;;2.62;100.00
14818;BME280;7500;57.698;11.986;2023-02-02T12:34:31;101854.69;;;2.78;100.00
14818;BME280;7500;57.698;11.986;2023-02-02T12:37:05;101866.00;;;2.77;100.00
14818;BME280;7500;57.698;11.986;2023-02-02T12:40:12;101866.00;;;2.81;100.00
14818;BME280;7500;57.698;11.986;2023-02-02T12:43:33;101855.56;;;2.86;100.00
14818;BME280;7500;57.698;11.986;2023-02-02T12:46:28;101866.00;;;2.87;100.00
14818;BME280;7500;57.698;11.986;2023-02-02T12:49:16;101871.19;;;2.92;100.00
14818;BME280;7500;57.698;11.986;2023-02-02T12:51:57;101866.84;;;2.94;100.00
14818;BME280;7500;57.698;11.986;2023-02-02T12:54:43;101865.97;;;2.93;100.00
14818;BME280;7500;57.698;11.986;2023-02-02T12:57:21;101873.78;;;2.98;100.00
14818;BME280;7500;57.698;11.986;2023-02-02T13:02:59;101881.59;;;3.04;100.00
14818;BME280;7500;57.698;11.986;2023-02-02T13:05:41;101845.13;;;2.86;100.00
14818;BME280;7500;57.698;11.986;2023-02-02T13:08:13;101870.31;;;2.99;100.00
14818;BME280;7500;57.698;11.986;2023-02-02T13:10:44;101886.81;;;2.99;100.00
14818;BME280;7500;57.698;11.986;2023-02-02T13:13:15;101892.91;;;2.95;100.00
14818;BME280;7500;57.698;11.986;2023-02-02T13:15:44;101897.25;;;3.01;100.00
14818;BME280;7500;57.698;11.986;2023-02-02T13:18:16;101895.50;;;3.06;100.00